sensor_id;sensor_type;location;lat;lon;timestamp;P1;durP1;ratioP1;P2;durP2;ratioP2
40503;SDS011;42292;49.048;8.374;2022-09-20T00:00:46;8.27;;;4.15;;
40503;SDS011;42292;49.048;8.374;2022-09-20T00:03:12;9.53;;;4.03;;
40503;SDS011;42292;49.048;8.374;2022-09-20T00:05:42;8.13;;;3.67;;
40503;SDS011;42292;49.048;8.374;2022-09-20T00:08:14;8.90;;;4.32;;
40503;SDS011;42292;49.048;8.374;2022-09-20T00:10:40;9.13;;;3.75;;
40503;SDS011;42292;49.048;8.374;2022-09-20T00:13:07;9.80;;;3.78;;
40503;SDS011;42292;49.048;8.374;2022-09-20T00:15:43;7.53;;;3.40;;
40503;SDS011;42292;49.048;8.374;2022-09-20T00:18:10;7.05;;;3.65;;
40503;SDS011;42292;49.048;8.374;2022-09-20T00:20:46;7.05;;;3.65;;
40503;SDS011;42292;49.048;8.374;2022-09-20T00:23:14;6.80;;;3.75;;
40503;SDS011;42292;49.048;8.374;2022-09-20T00:25:42;6.65;;;3.90;;
40503;SDS011;42292;49.048;8.374;2022-09-20T00:28:10;6.85;;;3.75;;
40503;SDS011;42292;49.048;8.374;2022-09-20T00:30:41;7.88;;;3.70;;
40503;SDS011;42292;49.048;8.374;2022-09-20T00:33:06;8.60;;;4.03;;
40503;SDS011;42292;49.048;8.374;2022-09-20T00:35:36;8.40;;;3.38;;
40503;SDS011;42292;49.048;8.374;2022-09-20T00:38:02;7.45;;;3.40;;
40503;SDS011;42292;49.048;8.374;2022-09-20T00:40:30;6.65;;;3.55;;
40503;SDS011;42292;49.048;8.374;2022-09-20T00:42:55;6.43;;;3.40;;
40503;SDS011;42292;49.048;8.374;2022-09-20T00:45:24;8.88;;;3.75;;
40503;SDS011;42292;49.048;8.374;2022-09-20T00:53:00;7.50;;;3.47;;
40503;SDS011;42292;49.048;8.374;2022-09-20T00:55:26;8.30;;;3.88;;
40503;SDS011;42292;49.048;8.374;2022-09-20T00:57:55;7.43;;;3.45;;
40503;SDS011;42292;49.048;8.374;2022-09-20T01:00:27;9.57;;;3.80;;
40503;SDS011;42292;49.048;8.374;2022-09-20T01:02:56;7.85;;;3.72;;
40503;SDS011;42292;49.048;8.374;2022-09-20T01:05:30;8.37;;;4.13;;
40503;SDS011;42292;49.048;8.374;2022-09-20T01:08:00;7.82;;;3.97;;
40503;SDS011;42292;49.048;8.374;2022-09-20T01:10:29;8.68;;;4.25;;
40503;SDS011;42292;49.048;8.374;2022-09-20T01:12:56;7.18;;;3.83;;
40503;SDS011;42292;49.048;8.374;2022-09-20T01:15:22;8.52;;;3.53;;
40503;SDS011;42292;49.048;8.374;2022-09-20T01:17:51;10.63;;;4.03;;
40503;SDS011;42292;49.048;8.374;2022-09-20T01:20:25;8.82;;;4.10;;
40503;SDS011;42292;49.048;8.374;2022-09-20T01:25:40;9.38;;;4.05;;
40503;SDS011;42292;49.048;8.374;2022-09-20T01:28:12;8.48;;;4.15;;
40503;SDS011;42292;49.048;8.374;2022-09-20T01:30:44;9.38;;;4.20;;
40503;SDS011;42292;49.048;8.374;2022-09-20T01:35:46;8.77;;;4.25;;
40503;SDS011;42292;49.048;8.374;2022-09-20T01:38:26;10.18;;;4.00;;
40503;SDS011;42292;49.048;8.374;2022-09-20T01:41:03;11.73;;;4.10;;
40503;SDS011;42292;49.048;8.374;2022-09-20T01:43:53;9.02;;;3.72;;
40503;SDS011;42292;49.048;8.374;2022-09-20T01:56:47;8.20;;;3.63;;
40503;SDS011;42292;49.048;8.374;2022-09-20T02:02:06;10.85;;;3.83;;
40503;SDS011;42292;49.048;8.374;2022-09-20T02:05:17;7.28;;;3.35;;
40503;SDS011;42292;49.048;8.374;2022-09-20T02:08:03;12.07;;;3.63;;
40503;SDS011;42292;49.048;8.374;2022-09-20T02:13:10;7.20;;;3.10;;
40503;SDS011;42292;49.048;8.374;2022-09-20T02:16:04;7.88;;;3.22;;
40503;SDS011;42292;49.048;8.374;2022-09-20T02:24:45;6.68;;;3.03;;
40503;SDS011;42292;49.048;8.374;2022-09-20T02:27:34;4.32;;;2.85;;
40503;SDS011;42292;49.048;8.374;2022-09-20T02:38:56;7.78;;;3.35;;
40503;SDS011;42292;49.048;8.374;2022-09-20T02:44:45;6.03;;;3.13;;
40503;SDS011;42292;49.048;8.374;2022-09-20T02:50:23;7.00;;;3.28;;
40503;SDS011;42292;49.048;8.374;2022-09-20T02:52:50;8.55;;;3.65;;
40503;SDS011;42292;49.048;8.374;2022-09-20T02:55:49;5.55;;;3.15;;
40503;SDS011;42292;49.048;8.374;2022-09-20T03:06:48;8.10;;;3.00;;
40503;SDS011;42292;49.048;8.374;2022-09-20T03:12:29;6.88;;;3.28;;
40503;SDS011;42292;49.048;8.374;2022-09-20T03:18:05;10.00;;;3.38;;
40503;SDS011;42292;49.048;8.374;2022-09-20T03:20:40;8.07;;;3.50;;
40503;SDS011;42292;49.048;8.374;2022-09-20T03:32:08;9.20;;;4.00;;
40503;SDS011;42292;49.048;8.374;2022-09-20T03:40:28;9.50;;;3.67;;
40503;SDS011;42292;49.048;8.374;2022-09-20T03:46:11;9.57;;;3.55;;
40503;SDS011;42292;49.048;8.374;2022-09-20T04:03:09;10.13;;;3.40;;
40503;SDS011;42292;49.048;8.374;2022-09-20T04:05:52;7.78;;;3.60;;
40503;SDS011;42292;49.048;8.374;2022-09-20T04:08:47;9.55;;;3.85;;
40503;SDS011;42292;49.048;8.374;2022-09-20T04:17:19;8.70;;;3.67;;
40503;SDS011;42292;49.048;8.374;2022-09-20T04:20:02;8.68;;;4.03;;
40503;SDS011;42292;49.048;8.374;2022-09-20T04:22:35;10.15;;;3.65;;
40503;SDS011;42292;49.048;8.374;2022-09-20T04:25:12;8.88;;;4.35;;
40503;SDS011;42292;49.048;8.374;2022-09-20T04:27:42;12.40;;;4.88;;
40503;SDS011;42292;49.048;8.374;2022-09-20T04:30:18;6.93;;;3.75;;
40503;SDS011;42292;49.048;8.374;2022-09-20T04:32:47;8.63;;;3.65;;
40503;SDS011;42292;49.048;8.374;2022-09-20T04:38:25;8.80;;;4.10;;
40503;SDS011;42292;49.048;8.374;2022-09-20T04:55:59;10.70;;;4.97;;
40503;SDS011;42292;49.048;8.374;2022-09-20T05:15:40;9.00;;;4.45;;
40503;SDS011;42292;49.048;8.374;2022-09-20T05:28:34;8.50;;;4.05;;
40503;SDS011;42292;49.048;8.374;2022-09-20T05:39:58;9.45;;;3.90;;
40503;SDS011;42292;49.048;8.374;2022-09-20T05:43:04;12.77;;;3.90;;
40503;SDS011;42292;49.048;8.374;2022-09-20T05:54:20;10.10;;;3.47;;
40503;SDS011;42292;49.048;8.374;2022-09-20T05:56:58;8.13;;;3.25;;
40503;SDS011;42292;49.048;8.374;2022-09-20T06:05:02;9.10;;;3.70;;
40503;SDS011;42292;49.048;8.374;2022-09-20T06:10:38;11.35;;;3.60;;
40503;SDS011;42292;49.048;8.374;2022-09-20T06:15:59;10.70;;;3.85;;
40503;SDS011;42292;49.048;8.374;2022-09-20T06:24:11;8.98;;;4.25;;
40503;SDS011;42292;49.048;8.374;2022-09-20T06:26:48;10.07;;;4.72;;
40503;SDS011;42292;49.048;8.374;2022-09-20T06:29:25;10.03;;;4.60;;
40503;SDS011;42292;49.048;8.374;2022-09-20T06:31:59;7.53;;;3.92;;
40503;SDS011;42292;49.048;8.374;2022-09-20T06:34:25;11.73;;;3.70;;
40503;SDS011;42292;49.048;8.374;2022-09-20T06:36:59;8.77;;;3.65;;
40503;SDS011;42292;49.048;8.374;2022-09-20T06:43:11;7.22;;;3.20;;
40503;SDS011;42292;49.048;8.374;2022-09-20T06:45:40;8.30;;;3.55;;
40503;SDS011;42292;49.048;8.374;2022-09-20T06:48:06;6.72;;;3.20;;
40503;SDS011;42292;49.048;8.374;2022-09-20T06:50:36;9.05;;;3.70;;
40503;SDS011;42292;49.048;8.374;2022-09-20T06:53:01;11.90;;;3.73;;
40503;SDS011;42292;49.048;8.374;2022-09-20T06:55:31;7.07;;;3.57;;
40503;SDS011;42292;49.048;8.374;2022-09-20T06:58:01;7.97;;;3.38;;
40503;SDS011;42292;49.048;8.374;2022-09-20T07:00:30;8.05;;;3.50;;
40503;SDS011;42292;49.048;8.374;2022-09-20T07:02:55;7.20;;;3.33;;
40503;SDS011;42292;49.048;8.374;2022-09-20T07:05:21;7.60;;;3.38;;
40503;SDS011;42292;49.048;8.374;2022-09-20T07:07:48;7.32;;;3.22;;
40503;SDS011;42292;49.048;8.374;2022-09-20T07:10:14;9.07;;;3.20;;
40503;SDS011;42292;49.048;8.374;2022-09-20T07:12:40;10.13;;;3.30;;
40503;SDS011;42292;49.048;8.374;2022-09-20T07:15:06;8.65;;;3.20;;
40503;SDS011;42292;49.048;8.374;2022-09-20T07:17:32;7.38;;;3.30;;
40503;SDS011;42292;49.048;8.374;2022-09-20T07:19:58;7.50;;;2.93;;
40503;SDS011;42292;49.048;8.374;2022-09-20T07:22:24;8.73;;;3.25;;
40503;SDS011;42292;49.048;8.374;2022-09-20T07:24:50;10.73;;;3.73;;
40503;SDS011;42292;49.048;8.374;2022-09-20T07:27:16;7.25;;;3.33;;
40503;SDS011;42292;49.048;8.374;2022-09-20T07:29:42;10.18;;;4.07;;
40503;SDS011;42292;49.048;8.374;2022-09-20T07:32:10;9.68;;;4.13;;
40503;SDS011;42292;49.048;8.374;2022-09-20T07:34:39;8.10;;;3.97;;
40503;SDS011;42292;49.048;8.374;2022-09-20T07:37:05;8.35;;;3.33;;
40503;SDS011;42292;49.048;8.374;2022-09-20T07:39:30;8.93;;;3.20;;
40503;SDS011;42292;49.048;8.374;2022-09-20T07:41:58;10.70;;;3.00;;
40503;SDS011;42292;49.048;8.374;2022-09-20T07:44:25;5.90;;;2.75;;
40503;SDS011;42292;49.048;8.374;2022-09-20T07:46:58;8.40;;;3.40;;
40503;SDS011;42292;49.048;8.374;2022-09-20T07:49:25;5.97;;;2.83;;
40503;SDS011;42292;49.048;8.374;2022-09-20T07:51:56;11.98;;;6.00;;
40503;SDS011;42292;49.048;8.374;2022-09-20T07:54:22;7.28;;;3.08;;
40503;SDS011;42292;49.048;8.374;2022-09-20T07:56:48;5.35;;;2.70;;
40503;SDS011;42292;49.048;8.374;2022-09-20T07:59:16;7.55;;;3.08;;
40503;SDS011;42292;49.048;8.374;2022-09-20T08:01:42;6.73;;;2.60;;
40503;SDS011;42292;49.048;8.374;2022-09-20T08:04:08;5.32;;;2.55;;
40503;SDS011;42292;49.048;8.374;2022-09-20T08:06:35;10.55;;;2.70;;
40503;SDS011;42292;49.048;8.374;2022-09-20T08:09:02;8.80;;;2.75;;
40503;SDS011;42292;49.048;8.374;2022-09-20T08:11:30;7.68;;;2.60;;
40503;SDS011;42292;49.048;8.374;2022-09-20T08:13:59;6.25;;;2.60;;
40503;SDS011;42292;49.048;8.374;2022-09-20T08:16:27;9.07;;;2.42;;
40503;SDS011;42292;49.048;8.374;2022-09-20T08:18:58;9.30;;;2.38;;
40503;SDS011;42292;49.048;8.374;2022-09-20T08:21:26;9.60;;;2.78;;
40503;SDS011;42292;49.048;8.374;2022-09-20T08:23:59;7.07;;;2.33;;
40503;SDS011;42292;49.048;8.374;2022-09-20T08:26:28;6.47;;;2.40;;
40503;SDS011;42292;49.048;8.374;2022-09-20T08:28:59;5.75;;;2.22;;
40503;SDS011;42292;49.048;8.374;2022-09-20T08:31:26;8.10;;;2.30;;
40503;SDS011;42292;49.048;8.374;2022-09-20T08:33:55;7.15;;;2.38;;
40503;SDS011;42292;49.048;8.374;2022-09-20T08:36:23;8.25;;;2.45;;
40503;SDS011;42292;49.048;8.374;2022-09-20T08:38:50;8.90;;;2.67;;
40503;SDS011;42292;49.048;8.374;2022-09-20T08:41:32;7.13;;;2.20;;
40503;SDS011;42292;49.048;8.374;2022-09-20T08:44:05;8.07;;;2.60;;
40503;SDS011;42292;49.048;8.374;2022-09-20T08:47:36;7.37;;;2.50;;
40503;SDS011;42292;49.048;8.374;2022-09-20T08:49:36;8.25;;;2.67;;
40503;SDS011;42292;49.048;8.374;2022-09-20T08:52:02;7.17;;;2.20;;
40503;SDS011;42292;49.048;8.374;2022-09-20T08:54:31;6.22;;;1.83;;
40503;SDS011;42292;49.048;8.374;2022-09-20T08:57:03;6.85;;;1.90;;
40503;SDS011;42292;49.048;8.374;2022-09-20T08:59:36;6.73;;;1.80;;
40503;SDS011;42292;49.048;8.374;2022-09-20T09:02:07;9.70;;;2.42;;
40503;SDS011;42292;49.048;8.374;2022-09-20T09:04:44;6.68;;;2.40;;
40503;SDS011;42292;49.048;8.374;2022-09-20T09:07:13;7.97;;;2.40;;
40503;SDS011;42292;49.048;8.374;2022-09-20T09:09:43;8.20;;;1.85;;
40503;SDS011;42292;49.048;8.374;2022-09-20T09:12:25;5.70;;;1.60;;
40503;SDS011;42292;49.048;8.374;2022-09-20T09:14:56;5.82;;;1.70;;
40503;SDS011;42292;49.048;8.374;2022-09-20T09:17:24;8.05;;;1.80;;
40503;SDS011;42292;49.048;8.374;2022-09-20T09:22:38;7.32;;;2.03;;
40503;SDS011;42292;49.048;8.374;2022-09-20T09:27:49;7.53;;;1.95;;
40503;SDS011;42292;49.048;8.374;2022-09-20T09:30:22;5.30;;;1.80;;
40503;SDS011;42292;49.048;8.374;2022-09-20T09:32:50;9.20;;;2.10;;
40503;SDS011;42292;49.048;8.374;2022-09-20T09:35:31;7.00;;;1.65;;
40503;SDS011;42292;49.048;8.374;2022-09-20T09:38:00;5.05;;;2.10;;
40503;SDS011;42292;49.048;8.374;2022-09-20T09:40:27;5.03;;;1.40;;
40503;SDS011;42292;49.048;8.374;2022-09-20T09:42:59;5.53;;;1.50;;
40503;SDS011;42292;49.048;8.374;2022-09-20T09:45:28;6.95;;;1.73;;
40503;SDS011;42292;49.048;8.374;2022-09-20T09:47:54;4.53;;;1.50;;
40503;SDS011;42292;49.048;8.374;2022-09-20T09:50:26;4.88;;;1.60;;
40503;SDS011;42292;49.048;8.374;2022-09-20T09:52:57;4.80;;;1.45;;
40503;SDS011;42292;49.048;8.374;2022-09-20T09:55:25;6.18;;;1.50;;
40503;SDS011;42292;49.048;8.374;2022-09-20T09:58:02;6.07;;;1.40;;
40503;SDS011;42292;49.048;8.374;2022-09-20T10:00:40;4.38;;;1.52;;
40503;SDS011;42292;49.048;8.374;2022-09-20T10:06:05;6.18;;;1.83;;
40503;SDS011;42292;49.048;8.374;2022-09-20T10:19:47;5.90;;;1.42;;
40503;SDS011;42292;49.048;8.374;2022-09-20T10:22:17;4.30;;;1.30;;
40503;SDS011;42292;49.048;8.374;2022-09-20T10:27:29;6.43;;;1.70;;
40503;SDS011;42292;49.048;8.374;2022-09-20T10:32:47;5.45;;;1.27;;
40503;SDS011;42292;49.048;8.374;2022-09-20T10:52:01;4.25;;;1.50;;
40503;SDS011;42292;49.048;8.374;2022-09-20T10:59:56;5.88;;;1.65;;
40503;SDS011;42292;49.048;8.374;2022-09-20T11:26:52;5.25;;;1.70;;
40503;SDS011;42292;49.048;8.374;2022-09-20T11:29:44;3.00;;;0.98;;
40503;SDS011;42292;49.048;8.374;2022-09-20T11:37:50;4.13;;;1.17;;
40503;SDS011;42292;49.048;8.374;2022-09-20T11:40:30;4.07;;;1.20;;
40503;SDS011;42292;49.048;8.374;2022-09-20T11:43:03;3.57;;;1.20;;
40503;SDS011;42292;49.048;8.374;2022-09-20T11:45:32;3.97;;;1.13;;
40503;SDS011;42292;49.048;8.374;2022-09-20T11:48:02;3.30;;;1.07;;
40503;SDS011;42292;49.048;8.374;2022-09-20T11:54:15;3.27;;;1.13;;
40503;SDS011;42292;49.048;8.374;2022-09-20T11:56:48;3.78;;;1.20;;
40503;SDS011;42292;49.048;8.374;2022-09-20T11:59:24;3.83;;;1.10;;
40503;SDS011;42292;49.048;8.374;2022-09-20T12:01:54;3.30;;;1.10;;
40503;SDS011;42292;49.048;8.374;2022-09-20T12:04:24;4.47;;;1.20;;
40503;SDS011;42292;49.048;8.374;2022-09-20T12:09:42;3.40;;;1.10;;
40503;SDS011;42292;49.048;8.374;2022-09-20T12:28:50;6.60;;;1.20;;
40503;SDS011;42292;49.048;8.374;2022-09-20T12:34:03;4.93;;;1.42;;
40503;SDS011;42292;49.048;8.374;2022-09-20T12:36:35;2.83;;;0.95;;
40503;SDS011;42292;49.048;8.374;2022-09-20T12:55:26;3.42;;;1.10;;
40503;SDS011;42292;49.048;8.374;2022-09-20T13:13:55;1.90;;;0.90;;
40503;SDS011;42292;49.048;8.374;2022-09-20T13:19:29;2.47;;;1.10;;
40503;SDS011;42292;49.048;8.374;2022-09-20T13:22:22;2.92;;;1.00;;
40503;SDS011;42292;49.048;8.374;2022-09-20T13:24:49;2.38;;;0.77;;
40503;SDS011;42292;49.048;8.374;2022-09-20T13:27:32;2.78;;;0.88;;
40503;SDS011;42292;49.048;8.374;2022-09-20T13:30:14;2.15;;;0.80;;
40503;SDS011;42292;49.048;8.374;2022-09-20T13:32:46;1.85;;;0.68;;
40503;SDS011;42292;49.048;8.374;2022-09-20T13:35:15;3.05;;;0.70;;
40503;SDS011;42292;49.048;8.374;2022-09-20T13:37:46;0.82;;;0.50;;
40503;SDS011;42292;49.048;8.374;2022-09-20T13:40:29;3.40;;;1.05;;
40503;SDS011;42292;49.048;8.374;2022-09-20T13:42:57;2.17;;;0.88;;
40503;SDS011;42292;49.048;8.374;2022-09-20T13:45:26;1.42;;;0.65;;
40503;SDS011;42292;49.048;8.374;2022-09-20T13:47:53;1.90;;;0.80;;
40503;SDS011;42292;49.048;8.374;2022-09-20T13:52:59;2.83;;;0.88;;
40503;SDS011;42292;49.048;8.374;2022-09-20T13:55:28;2.63;;;1.00;;
40503;SDS011;42292;49.048;8.374;2022-09-20T13:58:02;3.78;;;0.90;;
40503;SDS011;42292;49.048;8.374;2022-09-20T14:00:44;1.98;;;0.70;;
40503;SDS011;42292;49.048;8.374;2022-09-20T14:03:14;2.80;;;1.10;;
40503;SDS011;42292;49.048;8.374;2022-09-20T14:05:45;2.10;;;0.90;;
40503;SDS011;42292;49.048;8.374;2022-09-20T14:08:14;2.45;;;0.80;;
40503;SDS011;42292;49.048;8.374;2022-09-20T14:10:49;3.33;;;1.00;;
40503;SDS011;42292;49.048;8.374;2022-09-20T14:13:27;2.45;;;1.00;;
40503;SDS011;42292;49.048;8.374;2022-09-20T14:15:59;2.85;;;0.93;;
40503;SDS011;42292;49.048;8.374;2022-09-20T14:18:28;2.28;;;0.90;;
40503;SDS011;42292;49.048;8.374;2022-09-20T14:20:54;3.28;;;0.88;;
40503;SDS011;42292;49.048;8.374;2022-09-20T14:23:23;2.80;;;1.00;;
40503;SDS011;42292;49.048;8.374;2022-09-20T14:28:45;4.85;;;1.08;;
40503;SDS011;42292;49.048;8.374;2022-09-20T14:33:53;5.10;;;1.27;;
40503;SDS011;42292;49.048;8.374;2022-09-20T14:36:28;3.63;;;1.25;;
40503;SDS011;42292;49.048;8.374;2022-09-20T14:39:00;2.15;;;1.20;;
40503;SDS011;42292;49.048;8.374;2022-09-20T14:44:02;4.13;;;1.50;;
40503;SDS011;42292;49.048;8.374;2022-09-20T14:46:35;4.00;;;1.35;;
40503;SDS011;42292;49.048;8.374;2022-09-20T14:51:49;2.78;;;1.40;;
40503;SDS011;42292;49.048;8.374;2022-09-20T14:54:38;4.00;;;1.35;;
40503;SDS011;42292;49.048;8.374;2022-09-20T14:57:05;2.00;;;1.17;;
40503;SDS011;42292;49.048;8.374;2022-09-20T14:59:36;3.45;;;1.17;;
40503;SDS011;42292;49.048;8.374;2022-09-20T15:04:32;4.40;;;1.27;;
40503;SDS011;42292;49.048;8.374;2022-09-20T15:07:02;2.88;;;1.40;;
40503;SDS011;42292;49.048;8.374;2022-09-20T15:09:30;3.85;;;1.40;;
40503;SDS011;42292;49.048;8.374;2022-09-20T15:14:36;3.78;;;1.20;;
40503;SDS011;42292;49.048;8.374;2022-09-20T15:17:08;2.08;;;0.82;;
40503;SDS011;42292;49.048;8.374;2022-09-20T15:19:37;4.20;;;1.08;;
40503;SDS011;42292;49.048;8.374;2022-09-20T15:22:03;2.97;;;1.17;;
40503;SDS011;42292;49.048;8.374;2022-09-20T15:24:32;3.73;;;1.27;;
40503;SDS011;42292;49.048;8.374;2022-09-20T15:26:59;2.50;;;1.13;;
40503;SDS011;42292;49.048;8.374;2022-09-20T15:29:25;4.70;;;1.20;;
40503;SDS011;42292;49.048;8.374;2022-09-20T15:31:51;2.78;;;1.25;;
40503;SDS011;42292;49.048;8.374;2022-09-20T15:34:16;2.50;;;1.25;;
40503;SDS011;42292;49.048;8.374;2022-09-20T15:36:43;8.38;;;6.40;;
40503;SDS011;42292;49.048;8.374;2022-09-20T15:39:09;4.25;;;1.67;;
40503;SDS011;42292;49.048;8.374;2022-09-20T15:41:35;3.13;;;0.90;;
40503;SDS011;42292;49.048;8.374;2022-09-20T15:44:01;2.53;;;1.00;;
40503;SDS011;42292;49.048;8.374;2022-09-20T15:46:30;4.70;;;1.43;;
40503;SDS011;42292;49.048;8.374;2022-09-20T15:48:57;2.47;;;1.30;;
40503;SDS011;42292;49.048;8.374;2022-09-20T15:51:26;3.90;;;1.30;;
40503;SDS011;42292;49.048;8.374;2022-09-20T15:53:56;4.85;;;1.23;;
40503;SDS011;42292;49.048;8.374;2022-09-20T15:56:28;3.10;;;1.50;;
40503;SDS011;42292;49.048;8.374;2022-09-20T15:58:57;2.30;;;0.90;;
40503;SDS011;42292;49.048;8.374;2022-09-20T16:01:33;3.30;;;1.17;;
40503;SDS011;42292;49.048;8.374;2022-09-20T16:04:14;1.95;;;0.80;;
40503;SDS011;42292;49.048;8.374;2022-09-20T16:06:43;4.00;;;1.00;;
40503;SDS011;42292;49.048;8.374;2022-09-20T16:09:13;3.90;;;0.80;;
40503;SDS011;42292;49.048;8.374;2022-09-20T16:11:42;2.23;;;0.90;;
40503;SDS011;42292;49.048;8.374;2022-09-20T16:14:07;3.10;;;0.90;;
40503;SDS011;42292;49.048;8.374;2022-09-20T16:16:35;2.28;;;0.95;;
40503;SDS011;42292;49.048;8.374;2022-09-20T16:19:01;4.28;;;1.42;;
40503;SDS011;42292;49.048;8.374;2022-09-20T16:21:44;3.05;;;1.50;;
40503;SDS011;42292;49.048;8.374;2022-09-20T16:24:14;3.97;;;1.77;;
40503;SDS011;42292;49.048;8.374;2022-09-20T16:26:45;3.17;;;1.42;;
40503;SDS011;42292;49.048;8.374;2022-09-20T16:29:11;3.05;;;1.30;;
40503;SDS011;42292;49.048;8.374;2022-09-20T16:31:37;2.93;;;1.60;;
40503;SDS011;42292;49.048;8.374;2022-09-20T16:34:33;7.43;;;5.22;;
40503;SDS011;42292;49.048;8.374;2022-09-20T16:37:04;2.93;;;1.50;;
40503;SDS011;42292;49.048;8.374;2022-09-20T16:39:39;5.10;;;1.75;;
40503;SDS011;42292;49.048;8.374;2022-09-20T16:42:09;3.20;;;1.20;;
40503;SDS011;42292;49.048;8.374;2022-09-20T16:44:37;6.13;;;1.47;;
40503;SDS011;42292;49.048;8.374;2022-09-20T16:47:06;2.80;;;1.70;;
40503;SDS011;42292;49.048;8.374;2022-09-20T16:49:34;4.57;;;2.63;;
40503;SDS011;42292;49.048;8.374;2022-09-20T16:52:02;2.33;;;1.35;;
40503;SDS011;42292;49.048;8.374;2022-09-20T16:54:31;4.15;;;2.33;;
40503;SDS011;42292;49.048;8.374;2022-09-20T16:56:59;4.15;;;1.95;;
40503;SDS011;42292;49.048;8.374;2022-09-20T16:59:25;3.10;;;1.57;;
40503;SDS011;42292;49.048;8.374;2022-09-20T17:01:50;5.53;;;1.65;;
40503;SDS011;42292;49.048;8.374;2022-09-20T17:04:16;4.38;;;2.08;;
40503;SDS011;42292;49.048;8.374;2022-09-20T17:06:49;3.50;;;1.90;;
40503;SDS011;42292;49.048;8.374;2022-09-20T17:09:15;3.38;;;1.75;;
40503;SDS011;42292;49.048;8.374;2022-09-20T17:11:44;6.33;;;1.90;;
40503;SDS011;42292;49.048;8.374;2022-09-20T17:14:13;4.97;;;1.93;;
40503;SDS011;42292;49.048;8.374;2022-09-20T17:16:41;6.07;;;2.00;;
40503;SDS011;42292;49.048;8.374;2022-09-20T17:21:35;5.05;;;1.90;;
40503;SDS011;42292;49.048;8.374;2022-09-20T17:24:07;6.43;;;3.30;;
40503;SDS011;42292;49.048;8.374;2022-09-20T17:26:36;3.63;;;2.53;;
40503;SDS011;42292;49.048;8.374;2022-09-20T17:29:09;4.72;;;2.30;;
40503;SDS011;42292;49.048;8.374;2022-09-20T17:31:39;3.92;;;1.95;;
40503;SDS011;42292;49.048;8.374;2022-09-20T17:34:07;4.05;;;2.15;;
40503;SDS011;42292;49.048;8.374;2022-09-20T17:36:42;5.90;;;2.28;;
40503;SDS011;42292;49.048;8.374;2022-09-20T17:39:10;3.17;;;1.60;;
40503;SDS011;42292;49.048;8.374;2022-09-20T17:41:40;3.13;;;2.22;;
40503;SDS011;42292;49.048;8.374;2022-09-20T17:44:07;4.85;;;2.55;;
40503;SDS011;42292;49.048;8.374;2022-09-20T17:46:37;4.57;;;2.90;;
40503;SDS011;42292;49.048;8.374;2022-09-20T17:49:05;2.95;;;2.40;;
40503;SDS011;42292;49.048;8.374;2022-09-20T17:51:41;5.68;;;2.40;;
40503;SDS011;42292;49.048;8.374;2022-09-20T17:54:09;4.37;;;2.50;;
40503;SDS011;42292;49.048;8.374;2022-09-20T17:56:40;4.10;;;2.60;;
40503;SDS011;42292;49.048;8.374;2022-09-20T17:59:15;3.58;;;2.55;;
40503;SDS011;42292;49.048;8.374;2022-09-20T18:01:42;5.43;;;3.20;;
40503;SDS011;42292;49.048;8.374;2022-09-20T18:04:14;6.07;;;3.08;;
40503;SDS011;42292;49.048;8.374;2022-09-20T18:06:46;6.85;;;3.67;;
40503;SDS011;42292;49.048;8.374;2022-09-20T18:09:13;5.18;;;3.03;;
40503;SDS011;42292;49.048;8.374;2022-09-20T18:11:43;5.60;;;3.30;;
40503;SDS011;42292;49.048;8.374;2022-09-20T18:14:15;4.50;;;3.10;;
40503;SDS011;42292;49.048;8.374;2022-09-20T18:16:44;5.45;;;2.63;;
40503;SDS011;42292;49.048;8.374;2022-09-20T18:19:10;4.25;;;2.58;;
40503;SDS011;42292;49.048;8.374;2022-09-20T18:21:37;4.83;;;2.53;;
40503;SDS011;42292;49.048;8.374;2022-09-20T18:24:05;5.88;;;1.85;;
40503;SDS011;42292;49.048;8.374;2022-09-20T18:26:37;4.85;;;2.97;;
40503;SDS011;42292;49.048;8.374;2022-09-20T18:29:13;4.60;;;2.20;;
40503;SDS011;42292;49.048;8.374;2022-09-20T18:31:46;2.35;;;2.00;;
40503;SDS011;42292;49.048;8.374;2022-09-20T18:34:14;4.75;;;2.22;;
40503;SDS011;42292;49.048;8.374;2022-09-20T18:36:45;5.40;;;3.03;;
40503;SDS011;42292;49.048;8.374;2022-09-20T18:39:19;5.30;;;2.70;;
40503;SDS011;42292;49.048;8.374;2022-09-20T18:41:49;5.72;;;3.22;;
40503;SDS011;42292;49.048;8.374;2022-09-20T18:44:18;7.60;;;3.60;;
40503;SDS011;42292;49.048;8.374;2022-09-20T18:46:44;7.50;;;4.10;;
40503;SDS011;42292;49.048;8.374;2022-09-20T18:49:11;27.58;;;24.42;;
40503;SDS011;42292;49.048;8.374;2022-09-20T18:51:41;10.10;;;7.55;;
40503;SDS011;42292;49.048;8.374;2022-09-20T18:54:08;9.35;;;5.18;;
40503;SDS011;42292;49.048;8.374;2022-09-20T18:56:38;7.82;;;5.65;;
40503;SDS011;42292;49.048;8.374;2022-09-20T19:04:26;8.40;;;5.30;;
40503;SDS011;42292;49.048;8.374;2022-09-20T19:29:13;8.95;;;6.00;;
40503;SDS011;42292;49.048;8.374;2022-09-20T19:31:49;7.72;;;5.38;;
40503;SDS011;42292;49.048;8.374;2022-09-20T19:34:19;8.20;;;5.88;;
40503;SDS011;42292;49.048;8.374;2022-09-20T19:51:10;11.00;;;6.57;;
40503;SDS011;42292;49.048;8.374;2022-09-20T19:53:36;10.63;;;6.65;;
40503;SDS011;42292;49.048;8.374;2022-09-20T19:56:09;12.75;;;8.50;;
40503;SDS011;42292;49.048;8.374;2022-09-20T19:58:46;13.48;;;8.75;;
40503;SDS011;42292;49.048;8.374;2022-09-20T20:01:17;11.68;;;8.60;;
40503;SDS011;42292;49.048;8.374;2022-09-20T20:03:44;12.57;;;9.20;;
40503;SDS011;42292;49.048;8.374;2022-09-20T20:24:53;8.82;;;6.43;;
40503;SDS011;42292;49.048;8.374;2022-09-20T20:27:20;8.75;;;6.43;;
40503;SDS011;42292;49.048;8.374;2022-09-20T20:29:47;9.75;;;5.97;;
40503;SDS011;42292;49.048;8.374;2022-09-20T20:32:16;7.88;;;5.93;;
40503;SDS011;42292;49.048;8.374;2022-09-20T20:34:41;6.47;;;5.38;;
40503;SDS011;42292;49.048;8.374;2022-09-20T20:37:10;7.10;;;5.40;;
40503;SDS011;42292;49.048;8.374;2022-09-20T20:39:36;9.55;;;5.55;;
40503;SDS011;42292;49.048;8.374;2022-09-20T20:42:04;7.72;;;5.80;;
40503;SDS011;42292;49.048;8.374;2022-09-20T20:44:31;9.02;;;5.45;;
40503;SDS011;42292;49.048;8.374;2022-09-20T20:47:01;9.38;;;5.60;;
40503;SDS011;42292;49.048;8.374;2022-09-20T20:49:28;9.50;;;5.60;;
40503;SDS011;42292;49.048;8.374;2022-09-20T20:51:57;8.02;;;5.25;;
40503;SDS011;42292;49.048;8.374;2022-09-20T20:54:23;9.43;;;6.35;;
40503;SDS011;42292;49.048;8.374;2022-09-20T20:56:49;7.88;;;6.13;;
40503;SDS011;42292;49.048;8.374;2022-09-20T20:59:19;9.50;;;6.95;;
40503;SDS011;42292;49.048;8.374;2022-09-20T21:01:45;11.95;;;7.10;;
40503;SDS011;42292;49.048;8.374;2022-09-20T21:04:11;11.43;;;6.63;;
40503;SDS011;42292;49.048;8.374;2022-09-20T21:06:38;9.55;;;5.88;;
40503;SDS011;42292;49.048;8.374;2022-09-20T21:09:08;7.82;;;6.00;;
40503;SDS011;42292;49.048;8.374;2022-09-20T21:11:38;7.53;;;6.63;;
40503;SDS011;42292;49.048;8.374;2022-09-20T21:14:08;7.78;;;5.60;;
40503;SDS011;42292;49.048;8.374;2022-09-20T21:16:37;9.70;;;6.15;;
40503;SDS011;42292;49.048;8.374;2022-09-20T21:19:06;7.75;;;6.05;;
40503;SDS011;42292;49.048;8.374;2022-09-20T21:21:35;13.23;;;10.75;;
40503;SDS011;42292;49.048;8.374;2022-09-20T21:24:06;16.25;;;13.80;;
40503;SDS011;42292;49.048;8.374;2022-09-20T21:26:34;15.13;;;11.27;;
40503;SDS011;42292;49.048;8.374;2022-09-20T21:29:10;10.27;;;7.53;;
40503;SDS011;42292;49.048;8.374;2022-09-20T21:31:38;10.13;;;7.15;;
40503;SDS011;42292;49.048;8.374;2022-09-20T21:34:08;7.45;;;4.88;;
40503;SDS011;42292;49.048;8.374;2022-09-20T21:36:35;9.52;;;5.18;;
40503;SDS011;42292;49.048;8.374;2022-09-20T21:39:02;8.20;;;5.13;;
40503;SDS011;42292;49.048;8.374;2022-09-20T21:41:29;7.20;;;4.72;;
40503;SDS011;42292;49.048;8.374;2022-09-20T21:43:57;7.85;;;5.30;;
40503;SDS011;42292;49.048;8.374;2022-09-20T21:46:28;6.68;;;5.00;;
40503;SDS011;42292;49.048;8.374;2022-09-20T21:48:57;7.30;;;4.85;;
40503;SDS011;42292;49.048;8.374;2022-09-20T21:51:30;7.00;;;4.82;;